Jacksonville, IL

9:33 PM CDT on June 27, 2017 (GMT -0500)
Jacksonville Municipal

Weather History for KIJX - January, 2014

Change the Weather History Date:

Wednesday, January 29, 2014

  Actual Average (KSPI) Record (KSPI)
Temperature  
Mean Temperature 20 °F -  
Max Temperature 33 °F 34 °F 64 °F (2008)
Min Temperature 7 °F 17 °F -11 °F (1966)
Degree Days  
Heating Degree Days 45    
Moisture  
Dew Point 3 °F    
Average Humidity 48    
Maximum Humidity 70    
Minimum Humidity 29    
Precipitation  
Precipitation 0.00 in - - ()
Sea Level Pressure  
Sea Level Pressure 30.21 in    
Wind  
Wind Speed 10 mph (SSW)    
Max Wind Speed 18 mph    
Max Gust Speed 26 mph    
Visibility 10 miles    
Events      
Averages and records for this station are not official NWS values.
T = Trace of Precipitation, MM = Missing Value Source: NWS Daily Summary

Daily Weather History Graph

Daily Weather History Graph

Search for Another Location

Airport or City:

Trip Planner

Search our weather history database for the weather conditions in past years. The results will help you decide how hot, cold, wet, or windy it might be!

Date:

Astronomy

Jan. 29, 2014 Rise Set
Actual Time 7:11 AM CST 5:17 PM CST
Civil Twilight 6:42 AM CST 5:45 PM CST
Nautical Twilight 6:10 AM CST 6:18 PM CST
Astronomical Twilight 5:38 AM CST 6:50 PM CST
Moon 5:48 AM CST (1/29) 4:16 PM CST (1/29)
Length of Visible Light 11h 02m
Length of Day
10h 05m
Waning Crescent, 2% of the Moon is Illuminated
Jan 29
Waning Crescent
Jan 30
New
Feb 6
First Quarter
Feb 14
Full
Feb 22
Last Quarter

Hourly Weather History & Observations

Time (CST) Temp. Windchill Dew Point Humidity Pressure Visibility Wind Dir Wind Speed Gust Speed Precip Events Conditions
12:15 AM 8.4 °F -2.8 °F -2.2 °F 62% 30.33 in 10.0 mi SW 6.9 mph - N/A   Clear
12:35 AM 8.6 °F -4.7 °F -2.2 °F 62% 30.33 in 10.0 mi SW 9.2 mph - N/A   Clear
12:55 AM 8.6 °F -3.7 °F -2.2 °F 62% 30.32 in 10.0 mi SSW 8.1 mph - N/A   Clear
1:15 AM 8.6 °F -3.7 °F -1.8 °F 63% 30.31 in 10.0 mi SSW 8.1 mph - N/A   Clear
1:35 AM 9.1 °F -4.0 °F -2.2 °F 60% 30.30 in 10.0 mi SSW 9.2 mph - N/A   Clear
1:55 AM 9.1 °F -3.0 °F -2.2 °F 60% 30.30 in 10.0 mi SSW 8.1 mph - N/A   Clear
2:15 AM 9.1 °F -4.0 °F -1.7 °F 62% 30.31 in 10.0 mi SSW 9.2 mph - N/A   Clear
2:35 AM 9.0 °F -3.2 °F -1.7 °F 62% 30.31 in 10.0 mi SSW 8.1 mph - N/A   Clear
2:55 AM 9.1 °F -3.0 °F -1.7 °F 62% 30.31 in 10.0 mi SSW 8.1 mph - N/A   Clear
3:15 AM 8.6 °F -3.7 °F -1.7 °F 63% 30.30 in 10.0 mi SW 8.1 mph - N/A   Clear
3:35 AM 8.1 °F -3.2 °F -1.8 °F 64% 30.30 in 10.0 mi SW 6.9 mph - N/A   Clear
3:55 AM 8.4 °F -3.9 °F -1.7 °F 64% 30.29 in 10.0 mi SW 8.1 mph - N/A   Clear
4:15 AM 8.6 °F -3.7 °F -1.5 °F 64% 30.28 in 10.0 mi SW 8.1 mph - N/A   Clear
4:35 AM 8.4 °F -3.9 °F -1.5 °F 64% 30.29 in 10.0 mi SW 8.1 mph - N/A   Clear
4:55 AM 8.1 °F -4.3 °F -1.5 °F 65% 30.29 in 10.0 mi SW 8.1 mph - N/A   Clear
5:15 AM 7.7 °F -2.4 °F -1.5 °F 66% 30.29 in 10.0 mi SW 5.8 mph - N/A   Clear
5:35 AM 7.9 °F -3.5 °F -1.3 °F 66% 30.28 in 10.0 mi SW 6.9 mph - N/A   Clear
5:55 AM 8.2 °F -3.0 °F -0.9 °F 66% 30.29 in 10.0 mi SW 6.9 mph - N/A   Clear
6:15 AM 7.7 °F -3.7 °F -0.4 °F 70% 30.29 in 10.0 mi SSW 6.9 mph - N/A   Clear
6:35 AM 7.9 °F -3.5 °F -0.8 °F 68% 30.29 in 10.0 mi SSW 6.9 mph - N/A   Clear
6:55 AM 7.9 °F -3.5 °F -0.8 °F 68% 30.29 in 10.0 mi SSW 6.9 mph - N/A   Clear
7:15 AM 7.7 °F -3.7 °F -0.8 °F 68% 30.30 in 10.0 mi SSW 6.9 mph - N/A   Clear
7:35 AM 8.6 °F -2.6 °F -0.0 °F 68% 30.30 in 10.0 mi SSW 6.9 mph - N/A   Clear
7:55 AM 10.4 °F -0.4 °F 1.0 °F 66% 30.30 in 10.0 mi SSW 6.9 mph - N/A   Clear
8:15 AM 12.4 °F 0.0 °F 1.9 °F 63% 30.30 in 10.0 mi SSW 9.2 mph - N/A   Clear
8:35 AM 13.8 °F 1.0 °F 2.8 °F 62% 30.30 in 10.0 mi SSW 10.4 mph - N/A   Clear
8:55 AM 15.4 °F 2.3 °F 3.7 °F 60% 30.30 in 10.0 mi SW 11.5 mph - N/A   Clear
9:15 AM 17.2 °F 5.2 °F 4.1 °F 56% 30.30 in 10.0 mi SSW 10.4 mph - N/A   Clear
9:35 AM 19.2 °F 8.4 °F 5.2 °F 54% 30.29 in 10.0 mi SW 9.2 mph - N/A   Clear
9:55 AM 21.4 °F 9.7 °F 5.2 °F 50% 30.29 in 10.0 mi WSW 11.5 mph - N/A   Clear
10:15 AM 22.8 °F 12.2 °F 5.0 °F 47% 30.29 in 10.0 mi SW 10.4 mph - N/A   Clear
10:35 AM 24.6 °F 14.4 °F 5.4 °F 44% 30.29 in 10.0 mi SW 10.4 mph - N/A   Clear
10:55 AM 26.1 °F 15.6 °F 5.2 °F 41% 30.29 in 10.0 mi SW 11.5 mph - N/A   Clear
11:15 AM 27.3 °F 16.6 °F 5.2 °F 39% 30.28 in 10.0 mi SW 12.7 mph 18.4 mph N/A   Clear
11:35 AM 28.6 °F 17.2 °F 5.2 °F 37% 30.27 in 10.0 mi WSW 15.0 mph - N/A   Clear
11:55 AM 29.1 °F 17.5 °F 4.6 °F 35% 30.26 in 10.0 mi SSW 16.1 mph 20.7 mph N/A   Clear
12:15 PM 30.2 °F 18.1 °F 5.0 °F 34% 30.24 in 10.0 mi SW 18.4 mph 24.2 mph N/A   Clear
12:35 PM 30.9 °F 19.4 °F 3.6 °F 31% 30.23 in 10.0 mi SW 17.3 mph 24.2 mph N/A   Clear
12:55 PM 31.5 °F 19.8 °F 3.2 °F 30% 30.23 in 10.0 mi WSW 18.4 mph 24.2 mph N/A   Clear
1:15 PM 32.0 °F 23.0 °F 4.5 °F 31% 30.22 in 10.0 mi SSW 11.5 mph 21.9 mph N/A   Clear
1:35 PM 32.0 °F 20.5 °F 5.2 °F 32% 30.21 in 10.0 mi SSW 18.4 mph 24.2 mph N/A   Clear
1:55 PM 32.0 °F 21.6 °F 4.3 °F 31% 30.20 in 10.0 mi SSW 15.0 mph 24.2 mph N/A   Clear
2:15 PM 32.7 °F 21.4 °F 4.6 °F 31% 30.19 in 10.0 mi SSW 18.4 mph 23.0 mph N/A   Clear
2:35 PM 32.5 °F 21.9 °F 3.7 °F 30% 30.19 in 10.0 mi SSW 16.1 mph 26.5 mph N/A   Clear
2:55 PM 32.9 °F 22.0 °F 3.9 °F 29% 30.18 in 10.0 mi SW 17.3 mph 24.2 mph N/A   Clear
3:15 PM 33.6 °F 22.9 °F 4.6 °F 30% 30.18 in 10.0 mi SW 17.3 mph 21.9 mph N/A   Clear
3:35 PM 32.9 °F 22.4 °F 4.3 °F 30% 30.18 in 10.0 mi SW 16.1 mph 24.2 mph N/A   Clear
3:55 PM 32.5 °F 22.3 °F 4.3 °F 30% 30.17 in 10.0 mi SSW 15.0 mph - N/A   Clear
4:15 PM 32.5 °F 22.7 °F 5.0 °F 31% 30.16 in 10.0 mi SW 13.8 mph 18.4 mph N/A   Clear
4:35 PM 32.0 °F 21.2 °F 4.8 °F 32% 30.16 in 10.0 mi SSW 16.1 mph 20.7 mph N/A   Clear
4:55 PM 31.6 °F 22.6 °F 4.1 °F 31% 30.15 in 10.0 mi South 11.5 mph - N/A   Clear
5:15 PM 30.2 °F 20.8 °F 5.0 °F 34% 30.15 in 10.0 mi South 11.5 mph - N/A   Clear
5:35 PM 29.1 °F 19.4 °F 5.5 °F 37% 30.14 in 10.0 mi South 11.5 mph - N/A   Clear
5:55 PM 28.6 °F 19.9 °F 5.5 °F 38% 30.14 in 10.0 mi South 9.2 mph - N/A   Clear
6:15 PM 28.0 °F 18.6 °F 5.5 °F 38% 30.13 in 10.0 mi South 10.4 mph - N/A   Clear
6:35 PM 28.2 °F 18.3 °F 5.4 °F 38% 30.12 in 10.0 mi South 11.5 mph - N/A   Clear
6:55 PM 27.5 °F 16.8 °F 5.9 °F 40% 30.12 in 10.0 mi South 12.7 mph - N/A   Clear
7:15 PM 26.8 °F 17.1 °F 5.9 °F 41% 30.12 in 10.0 mi South 10.4 mph - N/A   Clear
7:35 PM 26.8 °F 15.9 °F 5.9 °F 41% 30.12 in 10.0 mi South 12.7 mph 17.3 mph N/A   Clear
7:55 PM 26.6 °F 15.2 °F 5.9 °F 41% 30.11 in 10.0 mi South 13.8 mph 18.4 mph N/A   Clear
8:15 PM 26.8 °F 15.9 °F 5.4 °F 40% 30.09 in 10.0 mi South 12.7 mph 19.6 mph N/A   Clear
8:35 PM 27.0 °F 15.6 °F 4.8 °F 39% 30.08 in 10.0 mi SSE 13.8 mph - N/A   Clear
8:55 PM 27.0 °F 14.7 °F 5.0 °F 39% 30.07 in 10.0 mi SSE 16.1 mph 23.0 mph N/A   Clear
9:15 PM 27.0 °F 14.7 °F 5.0 °F 39% 30.07 in 10.0 mi South 16.1 mph 23.0 mph N/A   Clear
9:35 PM 26.6 °F 14.3 °F 5.0 °F 40% 30.07 in 10.0 mi South 16.1 mph 21.9 mph N/A   Clear
9:55 PM 26.8 °F 14.1 °F 5.0 °F 40% 30.07 in 10.0 mi South 17.3 mph 24.2 mph N/A   Clear
10:15 PM 26.4 °F 15.0 °F 5.4 °F 41% 30.07 in 10.0 mi South 13.8 mph 20.7 mph N/A   Clear
10:35 PM 26.1 °F 13.6 °F 5.7 °F 42% 30.06 in 10.0 mi South 16.1 mph 20.7 mph N/A   Clear
10:55 PM 25.9 °F 13.3 °F 5.9 °F 43% 30.05 in 10.0 mi South 16.1 mph 20.7 mph N/A   Clear
11:15 PM 25.3 °F 12.2 °F 6.3 °F 44% 30.05 in 10.0 mi South 17.3 mph 21.9 mph N/A   Clear
11:35 PM 24.8 °F 12.9 °F 6.4 °F 46% 30.04 in 10.0 mi South 13.8 mph 21.9 mph N/A   Clear
11:55 PM 24.4 °F 11.9 °F 6.6 °F 47% 30.03 in 10.0 mi South 15.0 mph - N/A   Clear